sensor_id;sensor_type;location;lat;lon;timestamp;pressure;altitude;pressure_sealevel;temperature;humidity
38852;BME280;24605;50.092;9.182;2023-03-14T00:01:43;96049.19;;;8.87;100.00
38852;BME280;24605;50.092;9.182;2023-03-14T00:04:10;96050.97;;;8.93;100.00
38852;BME280;24605;50.092;9.182;2023-03-14T00:06:36;96050.34;;;8.91;100.00
38852;BME280;24605;50.092;9.182;2023-03-14T00:09:03;96042.50;;;8.91;100.00
38852;BME280;24605;50.092;9.182;2023-03-14T00:11:29;96034.28;;;8.88;100.00
38852;BME280;24605;50.092;9.182;2023-03-14T00:13:56;96059.41;;;9.02;100.00
38852;BME280;24605;50.092;9.182;2023-03-14T00:16:24;96047.34;;;9.01;100.00
38852;BME280;24605;50.092;9.182;2023-03-14T00:18:50;96051.13;;;9.05;100.00
38852;BME280;24605;50.092;9.182;2023-03-14T00:21:18;96029.03;;;9.01;100.00
38852;BME280;24605;50.092;9.182;2023-03-14T00:23:45;96045.09;;;9.12;100.00
38852;BME280;24605;50.092;9.182;2023-03-14T00:26:13;96059.94;;;9.11;100.00
38852;BME280;24605;50.092;9.182;2023-03-14T00:28:41;96058.56;;;9.08;100.00
38852;BME280;24605;50.092;9.182;2023-03-14T00:31:10;96066.19;;;9.10;100.00
38852;BME280;24605;50.092;9.182;2023-03-14T00:33:38;96061.38;;;9.07;100.00
38852;BME280;24605;50.092;9.182;2023-03-14T00:36:07;96074.84;;;9.11;100.00
38852;BME280;24605;50.092;9.182;2023-03-14T00:38:35;96064.19;;;9.05;100.00
38852;BME280;24605;50.092;9.182;2023-03-14T00:41:03;96063.41;;;9.05;100.00
38852;BME280;24605;50.092;9.182;2023-03-14T00:43:29;96060.41;;;9.01;100.00
38852;BME280;24605;50.092;9.182;2023-03-14T00:45:56;96053.56;;;9.00;100.00
38852;BME280;24605;50.092;9.182;2023-03-14T00:48:23;96051.75;;;9.01;100.00
38852;BME280;24605;50.092;9.182;2023-03-14T00:50:51;96056.56;;;9.11;100.00
38852;BME280;24605;50.092;9.182;2023-03-14T00:53:17;96057.75;;;9.08;100.00
38852;BME280;24605;50.092;9.182;2023-03-14T00:55:44;96055.16;;;9.01;100.00
38852;BME280;24605;50.092;9.182;2023-03-14T00:58:12;96061.56;;;9.05;100.00
38852;BME280;24605;50.092;9.182;2023-03-14T01:00:39;96007.22;;;8.75;100.00
38852;BME280;24605;50.092;9.182;2023-03-14T01:03:07;96050.31;;;9.12;100.00
38852;BME280;24605;50.092;9.182;2023-03-14T01:05:34;96039.44;;;9.08;100.00
38852;BME280;24605;50.092;9.182;2023-03-14T01:08:02;96035.41;;;9.19;100.00
38852;BME280;24605;50.092;9.182;2023-03-14T01:10:29;96025.75;;;9.13;100.00
38852;BME280;24605;50.092;9.182;2023-03-14T01:12:56;96030.34;;;9.17;100.00
38852;BME280;24605;50.092;9.182;2023-03-14T01:15:23;96020.97;;;9.09;100.00
38852;BME280;24605;50.092;9.182;2023-03-14T01:17:49;96021.94;;;9.15;100.00
38852;BME280;24605;50.092;9.182;2023-03-14T01:20:16;96024.97;;;9.12;100.00
38852;BME280;24605;50.092;9.182;2023-03-14T01:22:43;96035.41;;;9.12;100.00
38852;BME280;24605;50.092;9.182;2023-03-14T01:25:13;96022.75;;;9.09;100.00
38852;BME280;24605;50.092;9.182;2023-03-14T01:27:40;96031.19;;;9.11;100.00
38852;BME280;24605;50.092;9.182;2023-03-14T01:30:08;96042.88;;;9.08;100.00
38852;BME280;24605;50.092;9.182;2023-03-14T01:32:34;96034.66;;;9.05;100.00
38852;BME280;24605;50.092;9.182;2023-03-14T01:35:01;96022.81;;;9.02;100.00
38852;BME280;24605;50.092;9.182;2023-03-14T01:37:27;96018.97;;;8.98;100.00
38852;BME280;24605;50.092;9.182;2023-03-14T01:39:54;96029.81;;;9.08;100.00
38852;BME280;24605;50.092;9.182;2023-03-14T01:42:22;96027.81;;;9.04;100.00
38852;BME280;24605;50.092;9.182;2023-03-14T01:44:51;96008.53;;;8.98;100.00
38852;BME280;24605;50.092;9.182;2023-03-14T01:47:17;96015.16;;;9.01;100.00
38852;BME280;24605;50.092;9.182;2023-03-14T01:49:46;96009.50;;;9.04;100.00
38852;BME280;24605;50.092;9.182;2023-03-14T01:52:16;96005.28;;;9.03;100.00
38852;BME280;24605;50.092;9.182;2023-03-14T01:54:47;96002.44;;;9.11;100.00
38852;BME280;24605;50.092;9.182;2023-03-14T01:57:17;95974.56;;;8.98;100.00
38852;BME280;24605;50.092;9.182;2023-03-14T01:59:50;95978.75;;;9.06;100.00
38852;BME280;24605;50.092;9.182;2023-03-14T02:02:18;95978.31;;;9.09;100.00
38852;BME280;24605;50.092;9.182;2023-03-14T02:04:45;95978.50;;;9.14;100.00
38852;BME280;24605;50.092;9.182;2023-03-14T02:07:15;95977.31;;;9.10;100.00
38852;BME280;24605;50.092;9.182;2023-03-14T02:09:43;95956.84;;;9.07;100.00
38852;BME280;24605;50.092;9.182;2023-03-14T02:12:12;95977.75;;;9.07;100.00
38852;BME280;24605;50.092;9.182;2023-03-14T02:14:40;95964.69;;;9.07;100.00
38852;BME280;24605;50.092;9.182;2023-03-14T02:17:08;95955.78;;;9.15;100.00
38852;BME280;24605;50.092;9.182;2023-03-14T02:22:38;95949.41;;;9.04;100.00
38852;BME280;24605;50.092;9.182;2023-03-14T02:25:08;95928.13;;;8.93;100.00
38852;BME280;24605;50.092;9.182;2023-03-14T02:27:38;95929.91;;;9.00;100.00
38852;BME280;24605;50.092;9.182;2023-03-14T02:30:08;95918.06;;;8.97;100.00
38852;BME280;24605;50.092;9.182;2023-03-14T02:32:37;95920.06;;;8.95;100.00
38852;BME280;24605;50.092;9.182;2023-03-14T02:35:08;95915.25;;;8.99;100.00
38852;BME280;24605;50.092;9.182;2023-03-14T02:37:39;95926.50;;;8.99;100.00
38852;BME280;24605;50.092;9.182;2023-03-14T02:40:08;95913.66;;;8.98;100.00
38852;BME280;24605;50.092;9.182;2023-03-14T02:42:34;95907.00;;;8.95;100.00
38852;BME280;24605;50.092;9.182;2023-03-14T02:45:32;95916.03;;;9.06;100.00
38852;BME280;24605;50.092;9.182;2023-03-14T02:48:02;95895.38;;;8.98;100.00
38852;BME280;24605;50.092;9.182;2023-03-14T02:50:33;95893.06;;;9.08;100.00
38852;BME280;24605;50.092;9.182;2023-03-14T02:53:00;95905.13;;;9.09;100.00
38852;BME280;24605;50.092;9.182;2023-03-14T02:55:26;95905.13;;;9.09;100.00
38852;BME280;24605;50.092;9.182;2023-03-14T02:57:53;95907.59;;;9.04;100.00
38852;BME280;24605;50.092;9.182;2023-03-14T03:00:21;95899.72;;;9.11;100.00
38852;BME280;24605;50.092;9.182;2023-03-14T03:02:47;95900.72;;;9.09;100.00
38852;BME280;24605;50.092;9.182;2023-03-14T03:05:14;95891.50;;;9.07;100.00
38852;BME280;24605;50.092;9.182;2023-03-14T03:07:40;95909.97;;;9.05;100.00
38852;BME280;24605;50.092;9.182;2023-03-14T03:10:08;95916.41;;;9.09;100.00
38852;BME280;24605;50.092;9.182;2023-03-14T03:12:35;95917.19;;;9.10;100.00
38852;BME280;24605;50.092;9.182;2023-03-14T03:15:01;95898.72;;;9.05;100.00
38852;BME280;24605;50.092;9.182;2023-03-14T03:17:29;95891.31;;;9.02;100.00
38852;BME280;24605;50.092;9.182;2023-03-14T03:19:56;95881.91;;;8.94;100.00
38852;BME280;24605;50.092;9.182;2023-03-14T03:22:22;95901.00;;;8.94;100.00
38852;BME280;24605;50.092;9.182;2023-03-14T03:24:49;95902.41;;;8.90;100.00
38852;BME280;24605;50.092;9.182;2023-03-14T03:27:15;95884.81;;;8.79;100.00
38852;BME280;24605;50.092;9.182;2023-03-14T03:29:41;95889.56;;;8.89;100.00
38852;BME280;24605;50.092;9.182;2023-03-14T03:32:08;95874.72;;;8.89;100.00
38852;BME280;24605;50.092;9.182;2023-03-14T03:34:36;95883.31;;;8.97;100.00
38852;BME280;24605;50.092;9.182;2023-03-14T03:37:02;95882.69;;;8.94;100.00
38852;BME280;24605;50.092;9.182;2023-03-14T03:39:29;95875.50;;;8.90;100.00
38852;BME280;24605;50.092;9.182;2023-03-14T03:41:55;95880.34;;;8.86;100.00
38852;BME280;24605;50.092;9.182;2023-03-14T03:44:22;95879.34;;;8.87;100.00
38852;BME280;24605;50.092;9.182;2023-03-14T03:46:48;95870.91;;;8.85;100.00
38852;BME280;24605;50.092;9.182;2023-03-14T03:49:14;95873.91;;;8.82;100.00
38852;BME280;24605;50.092;9.182;2023-03-14T03:51:42;95869.13;;;8.79;100.00
38852;BME280;24605;50.092;9.182;2023-03-14T03:54:09;95850.47;;;8.75;100.00
38852;BME280;24605;50.092;9.182;2023-03-14T03:56:35;95857.66;;;8.80;100.00
38852;BME280;24605;50.092;9.182;2023-03-14T03:59:01;95854.69;;;8.76;100.00
38852;BME280;24605;50.092;9.182;2023-03-14T04:01:28;95844.59;;;8.80;100.00
38852;BME280;24605;50.092;9.182;2023-03-14T04:03:54;95836.94;;;8.85;100.00
38852;BME280;24605;50.092;9.182;2023-03-14T04:06:21;95849.41;;;8.83;100.00
38852;BME280;24605;50.092;9.182;2023-03-14T04:08:49;95840.34;;;8.86;100.00
38852;BME280;24605;50.092;9.182;2023-03-14T04:11:15;95831.94;;;8.84;100.00
38852;BME280;24605;50.092;9.182;2023-03-14T04:13:42;95834.09;;;8.87;100.00
38852;BME280;24605;50.092;9.182;2023-03-14T04:16:14;95824.13;;;8.77;100.00
38852;BME280;24605;50.092;9.182;2023-03-14T04:18:41;95830.13;;;8.77;100.00
38852;BME280;24605;50.092;9.182;2023-03-14T04:21:07;95833.00;;;8.69;100.00
38852;BME280;24605;50.092;9.182;2023-03-14T04:23:34;95827.19;;;8.67;100.00
38852;BME280;24605;50.092;9.182;2023-03-14T04:26:02;95833.00;;;8.69;100.00
38852;BME280;24605;50.092;9.182;2023-03-14T04:28:29;95814.94;;;8.68;100.00
38852;BME280;24605;50.092;9.182;2023-03-14T04:30:55;95828.81;;;8.68;100.00
38852;BME280;24605;50.092;9.182;2023-03-14T04:33:22;95812.47;;;8.73;100.00
38852;BME280;24605;50.092;9.182;2023-03-14T04:35:48;95810.09;;;8.71;100.00
38852;BME280;24605;50.092;9.182;2023-03-14T04:38:16;95811.69;;;8.72;100.00
38852;BME280;24605;50.092;9.182;2023-03-14T04:40:43;95808.06;;;8.73;100.00
38852;BME280;24605;50.092;9.182;2023-03-14T04:43:11;95826.19;;;8.68;100.00
38852;BME280;24605;50.092;9.182;2023-03-14T04:45:41;95790.06;;;8.58;100.00
38852;BME280;24605;50.092;9.182;2023-03-14T04:48:07;95788.50;;;8.44;100.00
38852;BME280;24605;50.092;9.182;2023-03-14T04:50:34;95837.69;;;8.60;100.00
38852;BME280;24605;50.092;9.182;2023-03-14T04:53:01;95822.59;;;8.62;100.00
38852;BME280;24605;50.092;9.182;2023-03-14T04:55:27;95833.97;;;8.75;100.00
38852;BME280;24605;50.092;9.182;2023-03-14T04:57:54;95820.88;;;8.82;100.00
38852;BME280;24605;50.092;9.182;2023-03-14T05:00:22;95817.69;;;8.73;100.00
38852;BME280;24605;50.092;9.182;2023-03-14T05:02:48;95821.13;;;8.73;100.00
38852;BME280;24605;50.092;9.182;2023-03-14T05:05:15;95813.91;;;8.69;100.00
38852;BME280;24605;50.092;9.182;2023-03-14T05:07:41;95807.59;;;8.83;100.00
38852;BME280;24605;50.092;9.182;2023-03-14T05:10:09;95818.84;;;8.84;100.00
38852;BME280;24605;50.092;9.182;2023-03-14T05:12:35;95815.63;;;8.88;100.00
38852;BME280;24605;50.092;9.182;2023-03-14T05:15:02;95826.84;;;8.89;100.00
38852;BME280;24605;50.092;9.182;2023-03-14T05:17:32;95822.00;;;8.92;100.00
38852;BME280;24605;50.092;9.182;2023-03-14T05:19:58;95817.38;;;8.94;100.00
38852;BME280;24605;50.092;9.182;2023-03-14T05:22:25;95816.78;;;8.92;100.00
38852;BME280;24605;50.092;9.182;2023-03-14T05:24:51;95805.94;;;8.89;100.00
38852;BME280;24605;50.092;9.182;2023-03-14T05:27:18;95799.09;;;8.94;100.00
38852;BME280;24605;50.092;9.182;2023-03-14T05:29:46;95785.88;;;8.89;100.00
38852;BME280;24605;50.092;9.182;2023-03-14T05:32:13;95780.47;;;8.84;100.00
38852;BME280;24605;50.092;9.182;2023-03-14T05:34:41;95783.06;;;8.84;100.00
38852;BME280;24605;50.092;9.182;2023-03-14T05:37:07;95783.44;;;8.88;100.00
38852;BME280;24605;50.092;9.182;2023-03-14T05:39:34;95791.50;;;8.86;100.00
38852;BME280;24605;50.092;9.182;2023-03-14T05:42:00;95790.72;;;8.86;100.00
38852;BME280;24605;50.092;9.182;2023-03-14T05:44:27;95779.94;;;8.75;100.00
38852;BME280;24605;50.092;9.182;2023-03-14T05:46:53;95776.72;;;8.73;100.00
38852;BME280;24605;50.092;9.182;2023-03-14T05:49:20;95783.88;;;8.85;100.00
38852;BME280;24605;50.092;9.182;2023-03-14T05:51:47;95795.13;;;8.85;100.00
38852;BME280;24605;50.092;9.182;2023-03-14T05:54:14;95787.66;;;8.89;100.00
38852;BME280;24605;50.092;9.182;2023-03-14T05:56:40;95788.47;;;8.89;100.00
38852;BME280;24605;50.092;9.182;2023-03-14T05:59:07;95786.44;;;8.91;100.00
38852;BME280;24605;50.092;9.182;2023-03-14T06:01:34;95776.25;;;8.83;100.00
38852;BME280;24605;50.092;9.182;2023-03-14T06:04:01;95781.00;;;8.93;100.00
38852;BME280;24605;50.092;9.182;2023-03-14T06:06:27;95778.97;;;8.95;100.00
38852;BME280;24605;50.092;9.182;2023-03-14T06:08:55;95781.06;;;8.86;100.00
38852;BME280;24605;50.092;9.182;2023-03-14T06:11:21;95786.69;;;8.83;100.00
38852;BME280;24605;50.092;9.182;2023-03-14T06:13:48;95786.00;;;8.94;100.00
38852;BME280;24605;50.092;9.182;2023-03-14T06:16:14;95794.44;;;8.97;100.00
38852;BME280;24605;50.092;9.182;2023-03-14T06:18:41;95787.78;;;9.01;100.00
38852;BME280;24605;50.092;9.182;2023-03-14T06:21:07;95786.94;;;9.07;100.00
38852;BME280;24605;50.092;9.182;2023-03-14T06:23:34;95790.22;;;8.96;100.00
38852;BME280;24605;50.092;9.182;2023-03-14T06:26:02;95791.19;;;8.69;100.00
38852;BME280;24605;50.092;9.182;2023-03-14T06:28:28;95793.06;;;8.62;100.00
38852;BME280;24605;50.092;9.182;2023-03-14T06:30:55;95791.69;;;8.53;100.00
38852;BME280;24605;50.092;9.182;2023-03-14T06:33:22;95798.19;;;8.37;100.00
38852;BME280;24605;50.092;9.182;2023-03-14T06:35:49;95797.44;;;8.23;100.00
38852;BME280;24605;50.092;9.182;2023-03-14T06:38:15;95795.50;;;8.05;100.00
38852;BME280;24605;50.092;9.182;2023-03-14T06:40:42;95799.94;;;7.97;100.00
38852;BME280;24605;50.092;9.182;2023-03-14T06:43:10;95788.13;;;7.88;100.00
38852;BME280;24605;50.092;9.182;2023-03-14T06:45:36;95786.97;;;7.84;100.00
38852;BME280;24605;50.092;9.182;2023-03-14T06:48:03;95786.34;;;7.82;100.00
38852;BME280;24605;50.092;9.182;2023-03-14T06:50:30;95785.56;;;7.75;100.00
38852;BME280;24605;50.092;9.182;2023-03-14T06:52:56;95785.38;;;7.76;100.00
38852;BME280;24605;50.092;9.182;2023-03-14T06:55:22;95784.34;;;7.77;100.00
38852;BME280;24605;50.092;9.182;2023-03-14T06:57:49;95783.53;;;7.77;100.00
38852;BME280;24605;50.092;9.182;2023-03-14T07:00:17;95786.56;;;7.74;100.00
38852;BME280;24605;50.092;9.182;2023-03-14T07:02:44;95779.94;;;7.78;100.00
38852;BME280;24605;50.092;9.182;2023-03-14T07:05:11;95766.28;;;7.76;100.00
38852;BME280;24605;50.092;9.182;2023-03-14T07:07:37;95772.50;;;7.81;100.00
38852;BME280;24605;50.092;9.182;2023-03-14T07:10:04;95757.47;;;7.77;100.00
38852;BME280;24605;50.092;9.182;2023-03-14T07:12:32;95770.69;;;7.82;100.00
38852;BME280;24605;50.092;9.182;2023-03-14T07:14:58;95765.50;;;7.82;100.00
38852;BME280;24605;50.092;9.182;2023-03-14T07:17:26;95730.19;;;7.73;100.00
38852;BME280;24605;50.092;9.182;2023-03-14T07:19:52;95757.44;;;7.90;100.00
38852;BME280;24605;50.092;9.182;2023-03-14T07:22:19;95755.00;;;7.95;100.00
38852;BME280;24605;50.092;9.182;2023-03-14T07:24:45;95761.56;;;8.05;100.00
38852;BME280;24605;50.092;9.182;2023-03-14T07:27:12;95758.97;;;8.05;100.00
38852;BME280;24605;50.092;9.182;2023-03-14T07:29:38;95748.34;;;8.06;100.00
38852;BME280;24605;50.092;9.182;2023-03-14T07:32:05;95759.16;;;8.10;100.00
38852;BME280;24605;50.092;9.182;2023-03-14T07:34:34;95760.94;;;8.16;100.00
38852;BME280;24605;50.092;9.182;2023-03-14T07:37:00;95755.34;;;8.06;100.00
38852;BME280;24605;50.092;9.182;2023-03-14T07:39:27;95754.09;;;8.15;100.00
38852;BME280;24605;50.092;9.182;2023-03-14T07:41:53;95759.09;;;8.23;100.00
38852;BME280;24605;50.092;9.182;2023-03-14T07:44:19;95756.06;;;8.26;100.00
38852;BME280;24605;50.092;9.182;2023-03-14T07:46:46;95755.81;;;8.35;100.00
38852;BME280;24605;50.092;9.182;2023-03-14T07:49:12;95747.38;;;8.39;100.00
38852;BME280;24605;50.092;9.182;2023-03-14T07:51:40;95758.41;;;8.41;100.00
38852;BME280;24605;50.092;9.182;2023-03-14T07:54:09;95757.75;;;8.53;100.00
38852;BME280;24605;50.092;9.182;2023-03-14T07:56:35;95765.59;;;8.53;100.00
38852;BME280;24605;50.092;9.182;2023-03-14T07:59:02;95763.94;;;8.58;100.00
38852;BME280;24605;50.092;9.182;2023-03-14T08:01:29;95763.50;;;8.68;100.00
38852;BME280;24605;50.092;9.182;2023-03-14T08:03:55;95771.78;;;8.58;100.00
38852;BME280;24605;50.092;9.182;2023-03-14T08:06:22;95775.91;;;8.73;100.00
38852;BME280;24605;50.092;9.182;2023-03-14T08:08:49;95779.41;;;8.60;100.00
38852;BME280;24605;50.092;9.182;2023-03-14T08:11:16;95775.63;;;8.56;100.00
38852;BME280;24605;50.092;9.182;2023-03-14T08:13:42;95769.59;;;8.55;100.00
38852;BME280;24605;50.092;9.182;2023-03-14T08:16:14;95710.25;;;8.30;100.00
38852;BME280;24605;50.092;9.182;2023-03-14T08:18:41;95760.44;;;8.71;100.00
38852;BME280;24605;50.092;9.182;2023-03-14T08:21:07;95764.63;;;8.79;100.00
38852;BME280;24605;50.092;9.182;2023-03-14T08:23:34;95756.78;;;8.79;100.00
38852;BME280;24605;50.092;9.182;2023-03-14T08:26:02;95757.13;;;8.89;100.00
38852;BME280;24605;50.092;9.182;2023-03-14T08:28:28;95747.09;;;8.86;100.00
38852;BME280;24605;50.092;9.182;2023-03-14T08:30:57;95760.72;;;9.14;100.00
38852;BME280;24605;50.092;9.182;2023-03-14T08:33:24;95766.06;;;9.00;100.00
38852;BME280;24605;50.092;9.182;2023-03-14T08:35:51;95771.69;;;9.04;100.00
38852;BME280;24605;50.092;9.182;2023-03-14T08:38:18;95766.66;;;9.02;100.00
38852;BME280;24605;50.092;9.182;2023-03-14T08:40:44;95778.97;;;8.95;100.00
38852;BME280;24605;50.092;9.182;2023-03-14T08:43:12;95779.25;;;9.12;100.00
38852;BME280;24605;50.092;9.182;2023-03-14T08:45:39;95782.88;;;9.11;100.00
38852;BME280;24605;50.092;9.182;2023-03-14T08:48:05;95773.44;;;9.10;100.00
38852;BME280;24605;50.092;9.182;2023-03-14T08:50:32;95772.41;;;9.11;100.00
38852;BME280;24605;50.092;9.182;2023-03-14T08:52:59;95780.25;;;9.11;100.00
38852;BME280;24605;50.092;9.182;2023-03-14T08:55:25;95776.84;;;9.11;100.00
38852;BME280;24605;50.092;9.182;2023-03-14T08:57:52;95779.84;;;9.14;100.00
38852;BME280;24605;50.092;9.182;2023-03-14T09:00:21;95771.22;;;9.32;100.00
38852;BME280;24605;50.092;9.182;2023-03-14T09:02:48;95775.34;;;9.21;100.00
38852;BME280;24605;50.092;9.182;2023-03-14T09:05:14;95777.09;;;9.28;100.00
38852;BME280;24605;50.092;9.182;2023-03-14T09:07:41;95761.19;;;9.11;100.00
38852;BME280;24605;50.092;9.182;2023-03-14T09:10:09;95784.31;;;9.32;100.00
38852;BME280;24605;50.092;9.182;2023-03-14T09:12:36;95776.72;;;9.24;100.00
38852;BME280;24605;50.092;9.182;2023-03-14T09:15:03;95791.72;;;9.10;100.00
38852;BME280;24605;50.092;9.182;2023-03-14T09:17:31;95787.50;;;9.09;100.00
38852;BME280;24605;50.092;9.182;2023-03-14T09:19:57;95788.78;;;9.25;100.00
38852;BME280;24605;50.092;9.182;2023-03-14T09:22:24;95783.75;;;9.49;100.00
38852;BME280;24605;50.092;9.182;2023-03-14T09:24:51;95792.22;;;9.69;100.00
38852;BME280;24605;50.092;9.182;2023-03-14T09:27:17;95791.13;;;9.77;100.00
38852;BME280;24605;50.092;9.182;2023-03-14T09:29:44;95785.31;;;9.75;100.00
38852;BME280;24605;50.092;9.182;2023-03-14T09:32:10;95780.28;;;9.92;100.00
38852;BME280;24605;50.092;9.182;2023-03-14T09:34:38;95790.56;;;9.94;100.00
38852;BME280;24605;50.092;9.182;2023-03-14T09:37:04;95793.38;;;9.92;100.00
38852;BME280;24605;50.092;9.182;2023-03-14T09:39:31;95791.63;;;10.04;100.00
38852;BME280;24605;50.092;9.182;2023-03-14T09:41:58;95794.25;;;10.23;100.00
38852;BME280;24605;50.092;9.182;2023-03-14T09:44:30;95800.16;;;10.37;100.00
38852;BME280;24605;50.092;9.182;2023-03-14T09:47:01;95790.38;;;10.26;100.00
38852;BME280;24605;50.092;9.182;2023-03-14T09:49:31;95795.56;;;10.14;100.00
38852;BME280;24605;50.092;9.182;2023-03-14T09:52:01;95792.66;;;10.03;100.00
38852;BME280;24605;50.092;9.182;2023-03-14T09:54:35;95788.13;;;10.11;100.00
38852;BME280;24605;50.092;9.182;2023-03-14T09:57:03;95801.22;;;10.11;100.00
38852;BME280;24605;50.092;9.182;2023-03-14T09:59:30;95795.13;;;10.17;100.00
38852;BME280;24605;50.092;9.182;2023-03-14T10:01:58;95788.38;;;10.09;100.00
38852;BME280;24605;50.092;9.182;2023-03-14T10:04:28;95793.47;;;9.85;100.00
38852;BME280;24605;50.092;9.182;2023-03-14T10:06:55;95777.03;;;9.60;100.00
38852;BME280;24605;50.092;9.182;2023-03-14T10:09:23;95802.19;;;9.61;100.00
38852;BME280;24605;50.092;9.182;2023-03-14T10:11:52;95785.81;;;9.65;100.00
38852;BME280;24605;50.092;9.182;2023-03-14T10:14:29;95778.06;;;9.96;100.00
38852;BME280;24605;50.092;9.182;2023-03-14T10:17:04;95778.13;;;10.08;100.00
38852;BME280;24605;50.092;9.182;2023-03-14T10:19:31;95770.28;;;10.08;100.00
38852;BME280;24605;50.092;9.182;2023-03-14T10:22:00;95767.50;;;10.02;100.00
38852;BME280;24605;50.092;9.182;2023-03-14T10:24:31;95771.78;;;9.97;100.00
38852;BME280;24605;50.092;9.182;2023-03-14T10:27:00;95769.63;;;10.12;100.00
38852;BME280;24605;50.092;9.182;2023-03-14T10:29:28;95748.59;;;10.00;100.00
38852;BME280;24605;50.092;9.182;2023-03-14T10:31:58;95775.38;;;10.33;100.00
38852;BME280;24605;50.092;9.182;2023-03-14T10:34:27;95750.22;;;10.32;100.00
38852;BME280;24605;50.092;9.182;2023-03-14T10:36:56;95778.44;;;10.48;100.00
38852;BME280;24605;50.092;9.182;2023-03-14T10:39:29;95770.31;;;10.19;100.00
38852;BME280;24605;50.092;9.182;2023-03-14T10:42:03;95776.56;;;10.18;100.00
38852;BME280;24605;50.092;9.182;2023-03-14T10:44:31;95778.56;;;10.04;100.00
38852;BME280;24605;50.092;9.182;2023-03-14T10:47:00;95784.81;;;9.85;100.00
38852;BME280;24605;50.092;9.182;2023-03-14T10:49:29;95789.72;;;9.75;100.00
38852;BME280;24605;50.092;9.182;2023-03-14T10:52:01;95781.25;;;9.61;100.00
38852;BME280;24605;50.092;9.182;2023-03-14T10:54:30;95785.44;;;9.62;100.00
38852;BME280;24605;50.092;9.182;2023-03-14T10:56:57;95785.09;;;9.77;100.00
38852;BME280;24605;50.092;9.182;2023-03-14T10:59:27;95792.50;;;9.61;100.00
38852;BME280;24605;50.092;9.182;2023-03-14T11:01:58;95781.31;;;9.54;100.00
38852;BME280;24605;50.092;9.182;2023-03-14T11:04:42;95788.41;;;9.65;100.00
38852;BME280;24605;50.092;9.182;2023-03-14T11:07:17;95783.91;;;9.54;100.00
38852;BME280;24605;50.092;9.182;2023-03-14T11:09:55;95761.88;;;9.24;100.00
38852;BME280;24605;50.092;9.182;2023-03-14T11:12:33;95792.59;;;9.48;100.00
38852;BME280;24605;50.092;9.182;2023-03-14T11:15:05;95783.97;;;9.22;100.00
38852;BME280;24605;50.092;9.182;2023-03-14T11:17:39;95790.06;;;9.16;100.00
38852;BME280;24605;50.092;9.182;2023-03-14T11:20:21;95786.88;;;9.14;100.00
38852;BME280;24605;50.092;9.182;2023-03-14T11:22:55;95774.41;;;9.16;100.00
38852;BME280;24605;50.092;9.182;2023-03-14T11:25:31;95783.28;;;9.08;100.00
38852;BME280;24605;50.092;9.182;2023-03-14T11:28:07;95772.34;;;8.92;100.00
38852;BME280;24605;50.092;9.182;2023-03-14T11:30:39;95784.69;;;8.85;100.00
38852;BME280;24605;50.092;9.182;2023-03-14T11:33:14;95776.19;;;8.90;100.00
38852;BME280;24605;50.092;9.182;2023-03-14T11:35:45;95777.38;;;8.94;100.00
38852;BME280;24605;50.092;9.182;2023-03-14T11:38:22;95776.78;;;8.92;100.00
38852;BME280;24605;50.092;9.182;2023-03-14T11:40:57;95769.84;;;9.04;100.00
38852;BME280;24605;50.092;9.182;2023-03-14T11:43:26;95742.19;;;8.65;100.00
38852;BME280;24605;50.092;9.182;2023-03-14T11:45:58;95769.03;;;8.78;100.00
38852;BME280;24605;50.092;9.182;2023-03-14T11:48:35;95767.44;;;8.77;100.00
38852;BME280;24605;50.092;9.182;2023-03-14T11:51:08;95763.81;;;8.78;100.00
38852;BME280;24605;50.092;9.182;2023-03-14T11:53:45;95770.56;;;8.93;100.00
38852;BME280;24605;50.092;9.182;2023-03-14T11:56:22;95781.00;;;8.93;100.00
38852;BME280;24605;50.092;9.182;2023-03-14T11:58:55;95770.19;;;8.89;100.00
38852;BME280;24605;50.092;9.182;2023-03-14T12:01:30;95765.53;;;8.91;100.00
38852;BME280;24605;50.092;9.182;2023-03-14T12:03:58;95765.38;;;8.86;100.00
38852;BME280;24605;50.092;9.182;2023-03-14T12:06:33;95761.50;;;8.96;100.00
38852;BME280;24605;50.092;9.182;2023-03-14T12:09:04;95768.38;;;8.90;100.00
38852;BME280;24605;50.092;9.182;2023-03-14T12:11:36;95761.50;;;8.96;100.00
38852;BME280;24605;50.092;9.182;2023-03-14T12:14:20;95766.16;;;8.87;100.00
38852;BME280;24605;50.092;9.182;2023-03-14T12:16:48;95770.63;;;8.80;100.00
38852;BME280;24605;50.092;9.182;2023-03-14T12:19:29;95772.88;;;8.76;100.00
38852;BME280;24605;50.092;9.182;2023-03-14T12:22:00;95763.69;;;8.67;100.00
38852;BME280;24605;50.092;9.182;2023-03-14T12:24:29;95766.16;;;8.61;100.00
38852;BME280;24605;50.092;9.182;2023-03-14T12:27:00;95772.13;;;8.69;100.00
38852;BME280;24605;50.092;9.182;2023-03-14T12:29:27;95744.56;;;8.73;100.00
38852;BME280;24605;50.092;9.182;2023-03-14T12:32:19;95766.22;;;8.80;100.00
38852;BME280;24605;50.092;9.182;2023-03-14T12:34:47;95762.44;;;8.76;100.00
38852;BME280;24605;50.092;9.182;2023-03-14T12:37:19;95762.84;;;8.73;100.00
38852;BME280;24605;50.092;9.182;2023-03-14T12:39:59;95763.53;;;8.61;100.00
38852;BME280;24605;50.092;9.182;2023-03-14T12:42:44;95778.84;;;8.58;100.00
38852;BME280;24605;50.092;9.182;2023-03-14T12:45:23;95839.28;;;8.61;100.00
38852;BME280;24605;50.092;9.182;2023-03-14T12:47:55;95903.31;;;7.92;100.00
38852;BME280;24605;50.092;9.182;2023-03-14T12:50:30;95921.94;;;6.53;100.00
38852;BME280;24605;50.092;9.182;2023-03-14T12:53:35;95946.97;;;6.19;100.00
38852;BME280;24605;50.092;9.182;2023-03-14T12:56:11;95960.81;;;5.97;100.00
38852;BME280;24605;50.092;9.182;2023-03-14T12:58:51;95988.28;;;6.00;100.00
38852;BME280;24605;50.092;9.182;2023-03-14T13:01:20;95990.31;;;6.05;100.00
38852;BME280;24605;50.092;9.182;2023-03-14T13:03:50;96019.75;;;6.05;100.00
38852;BME280;24605;50.092;9.182;2023-03-14T13:06:49;96018.97;;;6.11;100.00
38852;BME280;24605;50.092;9.182;2023-03-14T13:12:31;96024.44;;;6.17;100.00
38852;BME280;24605;50.092;9.182;2023-03-14T13:15:18;96022.56;;;6.10;100.00